Time;durP1;ratioP1;P1;durP2;ratioP2;P2;SDS_P1;SDS_P2;PMS_P1;PMS_P2;Temp;Humidity;BMP_temperature;BMP_pressure;BME280_temperature;BME280_humidity;BME280_pressure;Samples;Min_cycle;Max_cycle;Signal;HPM_P1;HPM_P2
2023/11/27 00:02:13;;;;;;;26.70;12.77;;;6.40;99.90;;;;;;7282056;19;20299;-91
2023/11/27 00:04:38;;;;;;;23.37;12.07;;;6.40;99.90;;;;;;7283521;19;20201;-90
2023/11/27 00:07:04;;;;;;;31.57;15.00;;;6.40;99.90;;;;;;7292966;19;20196;-91
2023/11/27 00:09:31;;;;;;;45.83;20.20;;;6.40;99.90;;;;;;7303664;19;20195;-90
2023/11/27 00:12:02;;;;;;;30.80;16.67;;;6.40;99.90;;;;;;7284550;19;20189;-91
2023/11/27 00:14:28;;;;;;;41.77;20.10;;;6.20;99.90;;;;;;7289429;19;20219;-91
2023/11/27 00:16:54;;;;;;;32.77;16.70;;;6.20;99.90;;;;;;7292380;19;20184;-91
2023/11/27 00:19:20;;;;;;;34.27;13.97;;;6.20;99.90;;;;;;7289535;19;20207;-90
2023/11/27 00:21:46;;;;;;;27.20;12.33;;;6.20;99.90;;;;;;7288607;19;20196;-90
2023/11/27 00:24:12;;;;;;;23.23;12.20;;;6.10;99.90;;;;;;7290862;19;20209;-90
2023/11/27 00:26:37;;;;;;;25.13;11.93;;;6.10;99.90;;;;;;7289136;19;20196;-91
2023/11/27 00:29:03;;;;;;;24.40;11.80;;;6.10;99.90;;;;;;7311624;19;20199;-87
2023/11/27 00:31:29;;;;;;;21.53;10.90;;;6.00;99.90;;;;;;7299085;19;20197;-91
2023/11/27 00:33:56;;;;;;;24.77;12.17;;;5.90;99.90;;;;;;7288637;19;20197;-91
2023/11/27 00:36:21;;;;;;;23.03;12.67;;;5.90;99.90;;;;;;7290149;19;20640;-90
2023/11/27 00:38:47;;;;;;;21.03;11.20;;;5.90;99.90;;;;;;7289744;19;20211;-90
2023/11/27 00:41:14;;;;;;;23.87;11.70;;;6.00;99.90;;;;;;7289010;19;20185;-90
2023/11/27 00:43:43;;;;;;;24.40;12.50;;;6.00;99.90;;;;;;7290415;19;20282;-90
2023/11/27 00:46:10;;;;;;;20.47;10.93;;;6.00;99.90;;;;;;7288146;19;20253;-89
2023/11/27 00:48:36;;;;;;;25.37;10.23;;;5.80;99.90;;;;;;7288302;19;20230;-88
2023/11/27 00:51:03;;;;;;;25.30;12.60;;;5.80;99.90;;;;;;7311145;19;20216;-89
2023/11/27 00:53:29;;;;;;;24.07;11.73;;;5.80;99.90;;;;;;7288137;19;20237;-88
2023/11/27 00:55:55;;;;;;;23.03;10.27;;;5.70;99.90;;;;;;7290781;19;20252;-88
2023/11/27 00:58:21;;;;;;;23.90;11.40;;;5.70;99.90;;;;;;7290489;19;20553;-89
2023/11/27 01:00:46;;;;;;;23.03;12.57;;;5.60;99.90;;;;;;7305902;19;20216;-88
2023/11/27 01:03:12;;;;;;;22.63;10.73;;;5.50;99.90;;;;;;7289972;19;20185;-88
2023/11/27 01:05:38;;;;;;;22.00;9.87;;;5.40;99.90;;;;;;7289693;19;20203;-88
2023/11/27 01:08:05;;;;;;;31.83;14.97;;;5.40;99.90;;;;;;7297786;19;20231;-87
2023/11/27 01:10:31;;;;;;;22.37;11.53;;;5.30;99.90;;;;;;7310020;19;20235;-88
2023/11/27 01:13:00;;;;;;;21.67;10.30;;;5.40;99.90;;;;;;7286713;19;20179;-88
2023/11/27 01:15:26;;;;;;;26.70;11.27;;;5.40;99.90;;;;;;7286393;19;20199;-88
2023/11/27 01:17:51;;;;;;;22.50;10.97;;;5.40;99.90;;;;;;7287499;19;20197;-88
2023/11/27 01:20:19;;;;;;;21.60;10.67;;;5.40;99.90;;;;;;7286737;19;20658;-89
2023/11/27 01:22:45;;;;;;;23.33;10.73;;;5.50;99.90;;;;;;7289562;19;20184;-89
2023/11/27 01:25:10;;;;;;;23.30;10.70;;;5.50;99.90;;;;;;7287308;19;20567;-88
2023/11/27 01:27:36;;;;;;;24.20;12.70;;;5.50;99.90;;;;;;7287814;19;20289;-88
2023/11/27 01:30:04;;;;;;;23.50;11.33;;;5.40;99.90;;;;;;7310908;19;20185;-88
2023/11/27 01:32:30;;;;;;;18.07;10.83;;;5.40;99.90;;;;;;7290124;19;20206;-88
2023/11/27 01:34:56;;;;;;;27.67;11.33;;;5.50;99.90;;;;;;7291007;19;20196;-88
2023/11/27 01:37:22;;;;;;;21.87;10.70;;;5.50;99.90;;;;;;7292003;19;20545;-88
2023/11/27 01:39:48;;;;;;;18.93;10.47;;;5.50;99.90;;;;;;7292620;19;20190;-87
2023/11/27 01:42:14;;;;;;;21.37;10.17;;;5.40;99.90;;;;;;7292398;19;20203;-87
2023/11/27 01:44:40;;;;;;;21.03;10.70;;;5.40;99.90;;;;;;7289815;19;20183;-87
2023/11/27 01:47:07;;;;;;;23.43;10.17;;;5.30;99.90;;;;;;7287044;19;20227;-88
2023/11/27 01:49:33;;;;;;;20.80;10.17;;;5.30;99.90;;;;;;7308206;19;20190;-88
2023/11/27 01:52:00;;;;;;;23.33;10.63;;;5.30;99.90;;;;;;7287588;19;20203;-88
2023/11/27 01:54:28;;;;;;;20.80;9.60;;;5.30;99.90;;;;;;7286141;19;20246;-89
2023/11/27 01:56:54;;;;;;;22.20;10.10;;;5.10;99.90;;;;;;7287925;19;20276;-88
2023/11/27 01:59:21;;;;;;;19.00;9.90;;;5.20;99.90;;;;;;7285405;19;20251;-88
2023/11/27 02:01:47;;;;;;;21.10;9.47;;;5.20;99.90;;;;;;7286207;19;20275;-88
2023/11/27 02:04:13;;;;;;;21.43;9.50;;;5.20;99.90;;;;;;7286005;19;20188;-87
2023/11/27 02:06:42;;;;;;;17.43;9.07;;;5.30;99.90;;;;;;7286655;19;20216;-88
2023/11/27 02:09:08;;;;;;;16.50;8.93;;;5.20;99.90;;;;;;7286224;19;20189;-88
2023/11/27 02:11:51;;;;;;;19.67;9.40;;;5.20;99.90;;;;;;7303314;19;20199;-87
2023/11/27 02:14:17;;;;;;;20.43;9.03;;;5.20;99.90;;;;;;7284750;19;20571;-89
2023/11/27 02:16:47;;;;;;;17.57;8.20;;;5.20;99.90;;;;;;7287083;19;20186;-88
2023/11/27 02:19:14;;;;;;;19.93;8.90;;;5.30;99.90;;;;;;7285339;19;20197;-88
2023/11/27 02:21:41;;;;;;;19.53;9.10;;;5.30;99.90;;;;;;7284778;19;20189;-87
2023/11/27 02:24:07;;;;;;;20.73;9.27;;;5.40;99.90;;;;;;7285917;19;20309;-88
2023/11/27 02:26:33;;;;;;;15.27;7.93;;;5.40;99.90;;;;;;7307728;19;20198;-88
2023/11/27 02:28:59;;;;;;;16.80;7.97;;;5.30;99.90;;;;;;7305150;19;20203;-88
2023/11/27 02:31:25;;;;;;;17.67;8.20;;;5.40;99.90;;;;;;7286222;19;20194;-88
2023/11/27 02:33:51;;;;;;;20.13;9.07;;;5.40;99.90;;;;;;7281751;19;20496;-87
2023/11/27 02:36:19;;;;;;;18.43;8.53;;;5.40;99.90;;;;;;7285096;19;20206;-88
2023/11/27 02:38:44;;;;;;;22.87;9.30;;;5.40;99.90;;;;;;7284492;19;20200;-89
2023/11/27 02:41:11;;;;;;;20.27;8.57;;;5.40;99.90;;;;;;7281646;19;20188;-89
2023/11/27 02:43:37;;;;;;;17.77;8.00;;;5.40;99.90;;;;;;7285150;19;20208;-88
2023/11/27 02:46:03;;;;;;;17.13;8.73;;;5.50;99.90;;;;;;7305958;19;20197;-88
2023/11/27 02:48:28;;;;;;;18.17;8.77;;;5.50;99.90;;;;;;7281668;19;20749;-89
2023/11/27 02:50:54;;;;;;;19.43;8.83;;;5.50;99.90;;;;;;7287707;19;20191;-88
2023/11/27 02:53:22;;;;;;;16.90;8.07;;;5.50;99.90;;;;;;7283330;19;20224;-89
2023/11/27 02:55:48;;;;;;;18.67;8.60;;;5.40;99.90;;;;;;7285156;19;20193;-89
2023/11/27 02:58:14;;;;;;;18.63;8.80;;;5.40;99.90;;;;;;7284605;19;20197;-88
2023/11/27 03:00:39;;;;;;;22.93;9.43;;;5.40;99.90;;;;;;7283865;19;20206;-88
2023/11/27 03:03:05;;;;;;;19.67;9.67;;;5.40;99.90;;;;;;7288682;19;20220;-89
2023/11/27 03:05:31;;;;;;;22.17;9.77;;;5.40;99.90;;;;;;7307588;19;20189;-88
2023/11/27 03:07:57;;;;;;;18.20;9.53;;;5.40;99.90;;;;;;7283602;19;20195;-88
2023/11/27 03:10:23;;;;;;;21.17;9.70;;;5.50;99.90;;;;;;7285022;19;20191;-89
2023/11/27 03:12:49;;;;;;;16.53;10.00;;;5.50;99.90;;;;;;7284308;19;20203;-88
2023/11/27 03:15:18;;;;;;;21.30;10.50;;;5.50;99.90;;;;;;7283862;19;20189;-88
2023/11/27 03:17:43;;;;;;;20.90;10.30;;;5.70;99.90;;;;;;7284859;19;20577;-89
2023/11/27 03:20:11;;;;;;;19.63;10.73;;;5.60;99.90;;;;;;7284358;19;20191;-89
2023/11/27 03:22:37;;;;;;;20.60;11.23;;;5.50;99.90;;;;;;7285001;19;20644;-88
2023/11/27 03:25:04;;;;;;;19.07;10.40;;;5.60;99.90;;;;;;7305962;19;20185;-88
2023/11/27 03:27:29;;;;;;;18.83;10.00;;;5.60;99.90;;;;;;7283521;19;20220;-88
2023/11/27 03:29:56;;;;;;;18.00;10.93;;;5.60;99.90;;;;;;7284546;19;20185;-89
2023/11/27 03:32:22;;;;;;;18.97;10.10;;;5.60;99.90;;;;;;7281857;19;20191;-88
2023/11/27 03:34:48;;;;;;;20.33;10.27;;;5.80;99.90;;;;;;7283536;19;20535;-88
2023/11/27 03:37:13;;;;;;;19.03;9.53;;;5.80;99.90;;;;;;7284757;19;20197;-89
2023/11/27 03:39:39;;;;;;;22.13;9.83;;;5.80;99.90;;;;;;7283157;19;20729;-88
2023/11/27 03:42:05;;;;;;;16.37;8.77;;;5.60;99.90;;;;;;7288949;19;20195;-88
2023/11/27 03:44:31;;;;;;;20.80;9.50;;;5.60;99.90;;;;;;7307308;19;20190;-88
2023/11/27 03:46:57;;;;;;;18.27;10.40;;;5.60;99.90;;;;;;7286357;19;20305;-88
2023/11/27 03:49:23;;;;;;;19.63;9.20;;;5.50;99.90;;;;;;7286553;19;20187;-89
2023/11/27 03:51:49;;;;;;;16.37;9.03;;;5.60;99.90;;;;;;7281725;19;20212;-88
2023/11/27 03:54:15;;;;;;;16.43;8.43;;;5.70;99.90;;;;;;7282454;19;20653;-88
2023/11/27 03:56:41;;;;;;;17.10;7.83;;;5.60;99.90;;;;;;7296519;19;20195;-88
2023/11/27 03:59:07;;;;;;;16.13;8.23;;;5.60;99.90;;;;;;7287412;19;20187;-89
2023/11/27 04:01:34;;;;;;;20.17;8.43;;;5.60;99.90;;;;;;7302545;19;20190;-85
2023/11/27 04:04:02;;;;;;;16.23;8.03;;;5.60;99.90;;;;;;7292422;19;20183;-89
2023/11/27 04:06:31;;;;;;;15.93;8.73;;;5.60;99.90;;;;;;7284034;19;20195;-88
2023/11/27 04:08:57;;;;;;;17.43;8.80;;;5.60;99.90;;;;;;7281820;19;20292;-89
2023/11/27 04:11:27;;;;;;;18.83;9.90;;;5.50;99.90;;;;;;7278551;19;20193;-88
2023/11/27 04:13:55;;;;;;;19.30;9.03;;;5.60;99.90;;;;;;7282550;19;20196;-89
2023/11/27 04:16:21;;;;;;;23.87;9.23;;;5.60;99.90;;;;;;7282578;19;20588;-89
2023/11/27 04:18:48;;;;;;;19.33;9.13;;;5.70;99.90;;;;;;7282462;19;20642;-90
2023/11/27 04:21:17;;;;;;;18.43;8.47;;;5.60;99.90;;;;;;7280064;19;20654;-88
2023/11/27 04:23:47;;;;;;;17.27;8.77;;;5.70;99.90;;;;;;7281079;19;20199;-89
2023/11/27 04:26:14;;;;;;;19.03;8.63;;;5.70;99.90;;;;;;7280855;19;20270;-89
2023/11/27 04:28:41;;;;;;;18.23;8.07;;;5.70;99.90;;;;;;7281941;19;20527;-88
2023/11/27 04:31:08;;;;;;;17.23;8.97;;;5.70;99.90;;;;;;7281156;19;20208;-89
2023/11/27 04:33:35;;;;;;;16.27;8.67;;;5.80;99.90;;;;;;7302502;19;20190;-85
2023/11/27 04:36:01;;;;;;;16.67;8.07;;;5.90;99.90;;;;;;7300682;19;20183;-89
2023/11/27 04:38:26;;;;;;;14.87;7.80;;;5.90;99.90;;;;;;7282393;19;20792;-90
2023/11/27 04:40:52;;;;;;;16.73;8.97;;;5.90;99.90;;;;;;7279411;19;20200;-89
2023/11/27 04:43:18;;;;;;;17.43;8.17;;;5.90;99.90;;;;;;7281979;19;20641;-91
2023/11/27 04:45:44;;;;;;;16.97;8.10;;;6.00;99.90;;;;;;7281361;19;20206;-90
2023/11/27 04:48:12;;;;;;;15.97;8.00;;;6.10;99.90;;;;;;7281313;19;20257;-89
2023/11/27 04:50:38;;;;;;;19.60;8.20;;;6.00;99.90;;;;;;7282726;19;20207;-89
2023/11/27 04:53:03;;;;;;;15.13;8.00;;;6.00;99.90;;;;;;7303097;19;20204;-89
2023/11/27 04:55:29;;;;;;;14.60;7.83;;;6.20;99.90;;;;;;7282938;19;20188;-90
2023/11/27 04:57:55;;;;;;;16.60;8.63;;;6.10;99.90;;;;;;7284756;19;20209;-90
2023/11/27 05:00:21;;;;;;;15.93;8.63;;;6.20;99.90;;;;;;7287410;19;20201;-90
2023/11/27 05:02:47;;;;;;;16.23;8.33;;;6.20;99.90;;;;;;7287912;19;20200;-89
2023/11/27 05:05:16;;;;;;;14.93;8.30;;;6.10;99.90;;;;;;7288007;19;20261;-90
2023/11/27 05:07:42;;;;;;;14.27;7.30;;;6.10;99.90;;;;;;7291726;19;20208;-90
2023/11/27 05:10:10;;;;;;;16.60;8.70;;;6.20;99.90;;;;;;7288355;19;20272;-90
2023/11/27 05:12:35;;;;;;;14.37;8.60;;;6.20;99.90;;;;;;7293293;19;20195;-90
2023/11/27 05:15:05;;;;;;;17.37;8.83;;;6.20;99.90;;;;;;7309484;19;20543;-90
2023/11/27 05:17:30;;;;;;;18.60;8.97;;;6.20;99.90;;;;;;7287294;19;20683;-90
2023/11/27 05:19:56;;;;;;;17.27;8.90;;;6.20;99.90;;;;;;7288883;19;20181;-89
2023/11/27 05:22:22;;;;;;;20.07;8.90;;;6.30;99.90;;;;;;7287657;19;20538;-89
2023/11/27 05:24:48;;;;;;;18.67;8.63;;;6.30;99.90;;;;;;7300960;19;20189;-90
2023/11/27 05:27:14;;;;;;;16.70;8.97;;;6.20;99.90;;;;;;7292829;19;20190;-88
2023/11/27 05:29:40;;;;;;;16.70;8.67;;;6.20;99.90;;;;;;7287215;19;20198;-90
2023/11/27 05:32:09;;;;;;;15.60;8.73;;;6.20;99.90;;;;;;7295323;19;20654;-89
2023/11/27 05:34:36;;;;;;;16.50;8.17;;;6.20;99.90;;;;;;7315331;19;20196;-89
2023/11/27 05:37:02;;;;;;;19.10;9.03;;;6.20;99.90;;;;;;7309900;19;20192;-88
2023/11/27 05:39:29;;;;;;;16.37;8.53;;;6.30;99.90;;;;;;7286804;19;20301;-90
2023/11/27 05:41:58;;;;;;;15.13;8.17;;;6.30;99.90;;;;;;7287779;19;21575;-89
2023/11/27 05:44:25;;;;;;;17.53;9.10;;;6.40;99.90;;;;;;7310421;19;21693;-89
2023/11/27 05:46:50;;;;;;;16.10;7.83;;;6.40;99.90;;;;;;7289721;19;20205;-90
2023/11/27 05:49:17;;;;;;;16.97;7.90;;;6.30;99.90;;;;;;7287551;19;20199;-89
2023/11/27 05:51:45;;;;;;;17.23;9.10;;;6.40;99.90;;;;;;7285811;19;20189;-91
2023/11/27 05:54:11;;;;;;;16.80;8.20;;;6.50;99.90;;;;;;7286299;19;20251;-90
2023/11/27 05:56:36;;;;;;;15.80;7.93;;;6.50;99.90;;;;;;7285634;19;20194;-90
2023/11/27 05:59:07;;;;;;;14.30;7.23;;;6.40;99.90;;;;;;7308748;19;20202;-89
2023/11/27 06:01:32;;;;;;;16.13;8.10;;;6.40;99.90;;;;;;7285352;19;20189;-89
2023/11/27 06:04:01;;;;;;;16.80;7.47;;;6.30;99.90;;;;;;7286887;19;20204;-90
2023/11/27 06:06:27;;;;;;;16.43;7.23;;;6.30;99.90;;;;;;7288192;19;20188;-91
2023/11/27 06:08:52;;;;;;;13.53;7.53;;;6.20;99.90;;;;;;7284564;19;20186;-92
2023/11/27 06:11:18;;;;;;;11.93;7.23;;;6.20;99.90;;;;;;7288195;19;20188;-91
2023/11/27 06:13:47;;;;;;;13.33;7.33;;;6.20;99.90;;;;;;7282829;19;20196;-90
2023/11/27 06:16:13;;;;;;;14.17;7.13;;;6.30;99.90;;;;;;7282299;19;20210;-92
2023/11/27 06:18:40;;;;;;;13.90;6.87;;;6.30;99.90;;;;;;7287201;19;20587;-88
2023/11/27 06:21:07;;;;;;;14.03;6.53;;;6.40;99.90;;;;;;7292443;19;20185;-87
2023/11/27 06:23:33;;;;;;;11.77;6.37;;;6.40;99.90;;;;;;7309304;19;20220;-88
2023/11/27 06:25:59;;;;;;;13.57;7.17;;;6.40;99.90;;;;;;7286447;19;20203;-89
2023/11/27 06:28:32;;;;;;;11.33;7.00;;;6.30;99.90;;;;;;7288455;19;20192;-89
2023/11/27 06:30:58;;;;;;;10.83;6.40;;;6.30;99.90;;;;;;7283935;19;20296;-89
2023/11/27 06:33:26;;;;;;;13.53;6.80;;;6.20;99.90;;;;;;7282236;19;20189;-81
2023/11/27 06:35:53;;;;;;;12.77;6.80;;;6.40;99.90;;;;;;7286413;19;20223;-86
2023/11/27 06:38:19;;;;;;;11.17;6.10;;;6.40;99.90;;;;;;7282277;19;20200;-89
2023/11/27 06:40:47;;;;;;;12.27;7.00;;;6.50;99.90;;;;;;7283693;19;20203;-89
2023/11/27 06:43:14;;;;;;;13.00;6.70;;;6.50;99.90;;;;;;7284405;19;20189;-90
2023/11/27 06:45:40;;;;;;;13.10;6.53;;;6.40;99.90;;;;;;7281523;19;20202;-88
2023/11/27 06:48:06;;;;;;;14.07;7.43;;;6.40;99.90;;;;;;7293823;19;20191;-88
2023/11/27 06:50:32;;;;;;;14.03;7.40;;;6.50;99.90;;;;;;7307599;19;20199;-88
2023/11/27 06:52:57;;;;;;;12.60;6.90;;;6.60;99.90;;;;;;7301637;19;20193;-87
2023/11/27 06:55:23;;;;;;;11.80;6.67;;;6.50;99.90;;;;;;7285979;19;20193;-88
2023/11/27 06:57:49;;;;;;;17.63;7.53;;;6.50;99.90;;;;;;7285415;19;20191;-88
2023/11/27 07:00:15;;;;;;;13.00;6.77;;;6.50;99.90;;;;;;7284490;19;20211;-89
2023/11/27 07:02:41;;;;;;;11.40;6.30;;;6.40;99.90;;;;;;7284653;19;20281;-88
2023/11/27 07:05:09;;;;;;;13.70;6.87;;;6.30;99.90;;;;;;7285715;19;20215;-89
2023/11/27 07:07:35;;;;;;;14.50;7.47;;;6.40;99.90;;;;;;7305781;19;20547;-89
2023/11/27 07:10:02;;;;;;;14.48;8.63;;;6.50;99.90;;;;;;7282516;19;20676;-87
2023/11/27 07:12:29;;;;;;;14.43;7.53;;;6.60;99.90;;;;;;7281662;19;20214;-84
2023/11/27 07:14:55;;;;;;;13.20;7.50;;;6.60;99.90;;;;;;7282870;19;20261;-88
2023/11/27 07:17:21;;;;;;;12.57;6.97;;;6.70;99.90;;;;;;7282531;19;20256;-88
2023/11/27 07:19:46;;;;;;;12.13;6.47;;;6.70;99.90;;;;;;7281956;19;20664;-87
2023/11/27 07:22:12;;;;;;;13.97;6.83;;;6.70;99.90;;;;;;7280846;19;20196;-87
2023/11/27 07:24:38;;;;;;;11.30;6.97;;;6.60;99.90;;;;;;7283456;19;20184;-88
2023/11/27 07:27:04;;;;;;;10.93;6.67;;;6.50;99.90;;;;;;7304146;19;20212;-88
2023/11/27 07:29:31;;;;;;;11.00;6.43;;;6.60;99.90;;;;;;7281288;19;20206;-88
2023/11/27 07:31:56;;;;;;;11.10;6.47;;;6.50;99.90;;;;;;7282896;19;20188;-86
2023/11/27 07:34:25;;;;;;;11.87;6.67;;;6.50;99.90;;;;;;7281699;19;20196;-85
2023/11/27 07:36:51;;;;;;;12.00;6.50;;;6.50;99.90;;;;;;7282474;19;20211;-86
2023/11/27 07:39:17;;;;;;;12.70;6.63;;;6.60;99.90;;;;;;7296258;19;20199;-85
2023/11/27 07:41:45;;;;;;;11.77;5.63;;;6.60;99.90;;;;;;7282208;19;20194;-86
2023/11/27 07:44:15;;;;;;;9.83;6.00;;;6.50;99.90;;;;;;7283272;19;20222;-87
2023/11/27 07:46:41;;;;;;;14.23;5.67;;;6.50;99.90;;;;;;7283581;19;20189;-89
2023/11/27 07:49:10;;;;;;;10.30;5.33;;;6.60;99.90;;;;;;7290066;19;20285;-88
2023/11/27 07:51:36;;;;;;;13.77;5.47;;;6.60;99.90;;;;;;7306541;19;20198;-86
2023/11/27 07:54:02;;;;;;;12.27;5.50;;;6.50;99.90;;;;;;7321266;19;20196;-89
2023/11/27 07:56:30;;;;;;;9.43;4.97;;;6.40;99.90;;;;;;7296441;19;20184;-89
2023/11/27 07:58:57;;;;;;;10.50;6.00;;;6.40;99.90;;;;;;7297116;19;20182;-88
2023/11/27 08:01:24;;;;;;;11.30;5.47;;;6.50;99.90;;;;;;7291405;19;20181;-89
2023/11/27 08:03:50;;;;;;;9.73;5.90;;;6.60;99.90;;;;;;7290381;19;20193;-90
2023/11/27 08:06:16;;;;;;;10.27;5.47;;;6.60;99.90;;;;;;7288115;19;20195;-89
2023/11/27 08:08:43;;;;;;;9.50;5.60;;;6.60;99.90;;;;;;7286265;19;20196;-89
2023/11/27 08:11:09;;;;;;;9.03;5.20;;;6.60;99.90;;;;;;7283159;19;20196;-88
2023/11/27 08:13:42;;;;;;;10.93;5.97;;;6.50;99.90;;;;;;7315466;19;20178;-85
2023/11/27 08:16:08;;;;;;;10.30;6.00;;;6.60;99.90;;;;;;7283816;19;20298;-89
2023/11/27 08:18:35;;;;;;;11.07;6.40;;;6.60;99.90;;;;;;7310484;19;20176;-89
2023/11/27 08:21:05;;;;;;;12.70;6.47;;;6.60;99.90;;;;;;7294151;19;20192;-89
2023/11/27 08:23:34;;;;;;;11.47;6.40;;;6.60;99.90;;;;;;7285314;19;20779;-89
2023/11/27 08:26:03;;;;;;;12.43;7.00;;;6.60;99.90;;;;;;7283356;19;20201;-88
2023/11/27 08:28:30;;;;;;;11.53;6.60;;;6.60;99.90;;;;;;7283491;19;20193;-88
2023/11/27 08:30:55;;;;;;;11.47;6.23;;;6.60;99.90;;;;;;7283414;19;20198;-89
2023/11/27 08:33:21;;;;;;;10.67;5.80;;;6.60;99.90;;;;;;7288334;19;20194;-88
2023/11/27 08:35:47;;;;;;;10.37;5.67;;;6.70;99.90;;;;;;7290278;19;20193;-88
2023/11/27 08:38:15;;;;;;;11.03;5.07;;;6.80;99.90;;;;;;7289141;19;20346;-88
2023/11/27 08:40:42;;;;;;;10.03;5.10;;;6.80;99.90;;;;;;7287945;19;20205;-89
2023/11/27 08:43:07;;;;;;;9.20;4.83;;;6.80;99.90;;;;;;7287996;19;20216;-88
2023/11/27 08:45:37;;;;;;;10.67;4.60;;;6.70;99.90;;;;;;7309817;19;20185;-88
2023/11/27 08:48:03;;;;;;;8.83;4.73;;;6.60;99.90;;;;;;7286624;19;20201;-88
2023/11/27 08:50:32;;;;;;;8.00;4.13;;;6.70;99.90;;;;;;7287822;19;20185;-89
2023/11/27 08:52:59;;;;;;;7.03;3.80;;;6.80;99.90;;;;;;7288164;19;20195;-87
2023/11/27 08:55:29;;;;;;;8.57;4.13;;;6.70;99.90;;;;;;7286996;19;20671;-88
2023/11/27 08:58:02;;;;;;;8.80;4.07;;;6.70;99.90;;;;;;7287219;19;20230;-88
2023/11/27 09:00:30;;;;;;;6.47;3.40;;;6.70;99.90;;;;;;7286802;19;20205;-88
2023/11/27 09:02:58;;;;;;;6.83;3.80;;;6.70;99.90;;;;;;7288429;19;20189;-88
2023/11/27 09:05:26;;;;;;;7.60;3.80;;;6.70;99.90;;;;;;7286683;19;20193;-89
2023/11/27 09:07:56;;;;;;;7.20;3.70;;;6.70;99.90;;;;;;7285067;19;20274;-88
2023/11/27 09:10:28;;;;;;;7.30;3.60;;;6.80;99.90;;;;;;7287818;19;20214;-88
2023/11/27 09:12:55;;;;;;;8.63;4.23;;;6.80;99.90;;;;;;7287014;19;20240;-89
2023/11/27 09:15:21;;;;;;;9.20;5.00;;;6.90;99.90;;;;;;7287117;19;20662;-89
2023/11/27 09:17:47;;;;;;;9.47;4.30;;;6.90;99.90;;;;;;7289324;19;20193;-88
2023/11/27 09:20:15;;;;;;;12.07;4.60;;;6.80;99.90;;;;;;7285701;19;20276;-89
2023/11/27 09:22:41;;;;;;;9.87;4.43;;;6.90;99.90;;;;;;7286887;19;20217;-89
2023/11/27 09:25:12;;;;;;;6.90;3.93;;;6.90;99.90;;;;;;7290812;19;20184;-88
2023/11/27 09:27:46;;;;;;;7.57;3.70;;;6.90;99.90;;;;;;7287672;19;20205;-88
2023/11/27 09:30:12;;;;;;;56.60;6.73;;;6.90;99.90;;;;;;7287622;19;20205;-88
2023/11/27 09:32:38;;;;;;;7.77;4.10;;;6.90;99.90;;;;;;7285703;19;20483;-86
2023/11/27 09:35:15;;;;;;;6.00;3.07;;;6.90;99.90;;;;;;7307113;19;20198;-88
2023/11/27 09:37:41;;;;;;;7.33;3.90;;;6.80;99.90;;;;;;7184179;19;2004416;-88
2023/11/27 09:40:10;;;;;;;7.00;4.00;;;6.90;99.90;;;;;;7291136;19;20193;-87
2023/11/27 09:42:36;;;;;;;7.53;3.77;;;6.90;99.90;;;;;;7301739;19;20197;-87
2023/11/27 09:45:12;;;;;;;7.03;3.80;;;6.90;99.90;;;;;;7305060;19;20196;-88
2023/11/27 09:47:39;;;;;;;6.57;3.43;;;6.90;99.90;;;;;;7271517;19;20293;-87
2023/11/27 09:50:12;;;;;;;6.20;3.47;;;7.00;99.90;;;;;;7304000;19;20190;-88
2023/11/27 09:52:49;;;;;;;8.47;3.70;;;7.00;99.90;;;;;;7265648;19;20196;-87
2023/11/27 09:55:18;;;;;;;8.23;3.63;;;6.90;99.90;;;;;;7284450;19;20213;-87
2023/11/27 09:57:49;;;;;;;6.13;3.10;;;6.90;99.90;;;;;;7284970;19;20180;-88
2023/11/27 10:00:20;;;;;;;5.23;2.80;;;6.80;99.90;;;;;;7285936;19;20185;-88
2023/11/27 10:02:47;;;;;;;6.03;3.10;;;6.80;99.90;;;;;;7284160;19;20737;-88
2023/11/27 10:05:22;;;;;;;7.10;3.40;;;6.80;99.90;;;;;;7287260;19;20204;-90
2023/11/27 10:07:52;;;;;;;6.57;3.30;;;6.90;99.90;;;;;;7286388;19;20193;-90
2023/11/27 10:10:27;;;;;;;7.23;3.20;;;7.00;99.90;;;;;;7285884;19;20217;-87
2023/11/27 10:12:59;;;;;;;6.80;3.40;;;7.10;99.90;;;;;;7285124;19;20188;-88
2023/11/27 10:15:28;;;;;;;6.93;3.47;;;7.10;99.90;;;;;;7285729;19;20197;-88
2023/11/27 10:17:56;;;;;;;6.73;3.27;;;7.20;99.90;;;;;;7286419;19;20219;-88
2023/11/27 10:20:23;;;;;;;6.30;2.73;;;7.10;99.90;;;;;;7284910;19;20196;-88
2023/11/27 10:22:49;;;;;;;4.90;2.73;;;7.10;99.90;;;;;;7285049;19;20197;-88
2023/11/27 10:25:16;;;;;;;7.17;3.33;;;7.20;99.90;;;;;;7286138;19;20199;-88
2023/11/27 10:27:44;;;;;;;5.77;3.30;;;7.30;99.90;;;;;;7284901;19;20192;-88
2023/11/27 10:30:20;;;;;;;6.03;3.17;;;7.30;99.90;;;;;;7280763;19;20314;-88
2023/11/27 10:32:47;;;;;;;6.10;3.37;;;7.30;99.90;;;;;;7285589;19;20221;-88
2023/11/27 10:35:17;;;;;;;8.93;3.47;;;7.20;99.90;;;;;;7283688;19;20199;-87
2023/11/27 10:37:49;;;;;;;6.30;3.00;;;7.20;99.90;;;;;;7285856;19;20204;-89
2023/11/27 10:40:17;;;;;;;8.37;3.70;;;7.20;99.90;;;;;;7284213;19;20752;-88
2023/11/27 10:42:47;;;;;;;6.67;3.40;;;7.10;99.90;;;;;;7282966;19;20228;-88
2023/11/27 10:45:18;;;;;;;6.80;3.70;;;7.10;99.90;;;;;;7284143;19;20338;-88
2023/11/27 10:47:53;;;;;;;8.57;3.30;;;7.20;99.90;;;;;;7282208;19;20722;-89
2023/11/27 10:50:22;;;;;;;6.93;3.40;;;7.10;99.90;;;;;;7281824;19;20189;-88
2023/11/27 10:52:51;;;;;;;7.90;4.13;;;7.10;99.90;;;;;;7284546;19;20193;-86
2023/11/27 10:55:33;;;;;;;7.43;4.00;;;7.10;99.90;;;;;;7281830;19;20277;-88
2023/11/27 10:57:59;;;;;;;5.97;3.40;;;7.00;99.90;;;;;;7284494;19;20676;-88
2023/11/27 11:00:39;;;;;;;5.70;3.30;;;6.90;99.90;;;;;;7283452;19;20578;-86
2023/11/27 11:03:14;;;;;;;7.43;3.50;;;6.90;99.90;;;;;;7284365;19;20558;-88
2023/11/27 11:05:46;;;;;;;7.80;3.47;;;6.90;99.90;;;;;;7258447;19;20219;-87
2023/11/27 11:08:12;;;;;;;6.80;3.47;;;7.00;99.90;;;;;;7283513;19;20212;-88
2023/11/27 11:10:40;;;;;;;5.90;3.23;;;7.10;99.90;;;;;;7287278;19;20991;-88
2023/11/27 11:13:12;;;;;;;7.00;3.60;;;7.20;99.90;;;;;;7307681;19;20197;-86
2023/11/27 11:15:50;;;;;;;5.87;3.50;;;7.10;99.90;;;;;;7287552;19;20210;-88
2023/11/27 11:18:31;;;;;;;8.07;4.20;;;7.10;99.90;;;;;;7283960;19;20239;-88
2023/11/27 11:21:19;;;;;;;5.93;3.47;;;7.10;99.90;;;;;;7282134;19;20240;-88
2023/11/27 11:24:25;;;;;;;6.17;3.60;;;7.10;99.90;;;;;;7181103;19;2004365;-88
2023/11/27 11:27:13;;;;;;;12.00;5.57;;;7.10;99.90;;;;;;7180367;19;2004598;-88
2023/11/27 11:29:44;;;;;;;10.07;4.60;;;7.10;99.90;;;;;;7262824;19;20199;-87
2023/11/27 11:32:16;;;;;;;15.03;7.47;;;7.20;99.90;;;;;;7282577;19;20195;-87
2023/11/27 11:34:47;;;;;;;10.40;4.97;;;7.20;99.90;;;;;;7283073;19;20192;-88
2023/11/27 11:37:14;;;;;;;9.13;4.63;;;7.20;99.90;;;;;;7284287;19;20193;-88
2023/11/27 11:39:47;;;;;;;8.87;4.73;;;7.30;99.90;;;;;;7283851;19;20400;-87
2023/11/27 11:42:17;;;;;;;10.97;5.03;;;7.30;99.90;;;;;;7283377;19;20661;-87
2023/11/27 11:45:19;;;;;;;10.57;4.90;;;7.30;99.90;;;;;;7282023;19;20209;-89
2023/11/27 11:47:56;;;;;;;8.00;4.50;;;7.40;99.90;;;;;;7178253;19;2006305;-89
2023/11/27 11:50:30;;;;;;;9.97;4.70;;;7.40;99.90;;;;;;7286381;19;20201;-88
2023/11/27 11:53:25;;;;;;;9.27;5.17;;;7.30;99.90;;;;;;7282791;19;20189;-88
2023/11/27 11:55:52;;;;;;;9.00;4.93;;;7.30;99.90;;;;;;7179722;19;2005881;-88
2023/11/27 11:58:17;;;;;;;10.10;5.00;;;7.30;99.90;;;;;;7283676;19;20199;-89
2023/11/27 12:00:43;;;;;;;9.70;5.40;;;7.30;99.90;;;;;;7280354;19;20574;-89
2023/11/27 12:03:15;;;;;;;11.90;6.03;;;7.30;99.90;;;;;;7284337;19;20635;-89
2023/11/27 12:05:51;;;;;;;8.00;4.53;;;7.30;99.90;;;;;;7281764;19;20281;-84
2023/11/27 12:08:17;;;;;;;9.67;5.53;;;7.30;99.90;;;;;;7285149;19;20627;-83
2023/11/27 12:10:43;;;;;;;10.00;4.87;;;7.40;99.90;;;;;;7288714;19;20553;-83
2023/11/27 12:13:10;;;;;;;9.83;5.23;;;7.50;99.90;;;;;;7287931;19;20201;-83
2023/11/27 12:15:36;;;;;;;11.07;5.67;;;7.60;99.90;;;;;;7311113;19;20208;-84
2023/11/27 12:18:08;;;;;;;9.83;5.43;;;7.70;99.90;;;;;;7289001;19;20185;-83
2023/11/27 12:20:37;;;;;;;9.10;5.00;;;7.70;99.90;;;;;;7288165;19;20191;-83
2023/11/27 12:23:06;;;;;;;9.03;4.90;;;7.60;99.90;;;;;;7289562;19;20180;-83
2023/11/27 12:25:34;;;;;;;9.03;4.90;;;7.60;99.90;;;;;;7289661;19;20185;-83
2023/11/27 12:28:00;;;;;;;8.87;4.77;;;7.70;99.90;;;;;;7287844;19;20544;-83
2023/11/27 12:30:26;;;;;;;9.03;4.73;;;7.70;99.90;;;;;;7287006;19;20360;-84
2023/11/27 12:32:52;;;;;;;8.77;4.63;;;7.70;99.90;;;;;;7286504;19;20206;-83
2023/11/27 12:35:21;;;;;;;7.90;4.50;;;7.70;99.90;;;;;;7284514;19;20252;-86
2023/11/27 12:37:48;;;;;;;9.60;5.07;;;7.80;99.90;;;;;;7287369;19;20192;-82
2023/11/27 12:40:20;;;;;;;11.00;5.10;;;7.90;99.90;;;;;;7288591;19;20292;-82
2023/11/27 12:42:47;;;;;;;10.20;5.10;;;7.90;99.90;;;;;;7286190;19;20623;-83
2023/11/27 12:45:20;;;;;;;7.70;4.57;;;7.90;99.90;;;;;;7288477;19;20200;-84
2023/11/27 12:47:50;;;;;;;7.43;4.47;;;8.00;99.90;;;;;;7287703;19;20192;-84
2023/11/27 12:50:23;;;;;;;10.13;4.77;;;7.90;99.90;;;;;;7286592;19;20209;-84
2023/11/27 12:52:50;;;;;;;8.33;4.50;;;7.90;99.90;;;;;;7287477;19;20200;-84